createdAt,value
2022-12-03T00:00:01.067Z,18.77
2022-12-03T00:02:27.477Z,18.47
2022-12-03T00:04:54.421Z,19.77
2022-12-03T00:07:21.182Z,21.07
2022-12-03T00:09:47.898Z,22.00
2022-12-03T00:12:14.314Z,20.27
2022-12-03T00:14:44.619Z,21.70
2022-12-03T00:17:11.455Z,19.98
2022-12-03T00:19:37.880Z,20.27
2022-12-03T00:22:04.323Z,20.93
2022-12-03T00:24:31.563Z,20.87
2022-12-03T00:26:57.997Z,21.43
2022-12-03T00:29:24.483Z,20.17
2022-12-03T00:31:50.901Z,18.33
2022-12-03T00:34:17.179Z,18.30
2022-12-03T00:36:43.650Z,18.20
2022-12-03T00:39:10.269Z,18.30
2022-12-03T00:41:36.692Z,16.87
2022-12-03T00:44:03.028Z,17.57
2022-12-03T00:46:29.481Z,17.47
2022-12-03T00:48:56.131Z,17.87
2022-12-03T00:51:22.546Z,18.23
2022-12-03T00:53:49.150Z,19.05
2022-12-03T00:56:15.705Z,18.63
2022-12-03T00:58:42.259Z,17.87
2022-12-03T01:01:08.551Z,19.60
2022-12-03T01:03:35.123Z,18.42
2022-12-03T01:06:01.562Z,17.73
2022-12-03T01:08:28.229Z,18.77
2022-12-03T01:10:54.617Z,18.27
2022-12-03T01:13:21.122Z,17.05
2022-12-03T01:15:47.544Z,18.33
2022-12-03T01:18:13.939Z,17.37
2022-12-03T01:20:40.438Z,16.25
2022-12-03T01:23:07.053Z,16.53
2022-12-03T01:25:33.624Z,16.58
2022-12-03T01:28:00.244Z,18.15
2022-12-03T01:30:26.657Z,16.73
2022-12-03T01:32:53.022Z,15.97
2022-12-03T01:35:19.479Z,16.17
2022-12-03T01:37:45.838Z,15.40
2022-12-03T01:40:16.309Z,15.40
2022-12-03T01:42:42.860Z,16.67
2022-12-03T01:45:22.010Z,16.02
2022-12-03T01:47:48.629Z,14.57
2022-12-03T01:50:20.745Z,16.73
2022-12-03T01:52:47.634Z,16.92
2022-12-03T01:55:19.256Z,16.23
2022-12-03T01:57:52.798Z,17.10
2022-12-03T02:00:22.412Z,16.27
2022-12-03T02:02:52.880Z,17.63
2022-12-03T02:05:23.412Z,17.00
2022-12-03T02:07:49.999Z,18.00
2022-12-03T02:10:18.920Z,18.70
2022-12-03T02:13:09.751Z,17.05
2022-12-03T02:15:39.064Z,16.55
2022-12-03T02:18:07.316Z,18.73
2022-12-03T02:20:41.790Z,17.00
2022-12-03T02:23:20.850Z,17.30
2022-12-03T02:25:47.286Z,18.10
2022-12-03T02:28:13.933Z,17.33
2022-12-03T02:30:40.285Z,17.83
2022-12-03T02:33:06.609Z,17.17
2022-12-03T02:35:35.320Z,17.15
2022-12-03T02:38:19.915Z,16.85
2022-12-03T02:40:49.656Z,16.50
2022-12-03T02:43:17.872Z,17.30
2022-12-03T02:45:50.723Z,18.73
2022-12-03T02:48:36.967Z,20.55
2022-12-03T02:51:09.340Z,17.60
2022-12-03T02:53:45.220Z,17.25
2022-12-03T02:56:18.392Z,17.42
2022-12-03T02:58:47.287Z,18.42
2022-12-03T03:01:14.490Z,18.85
2022-12-03T03:03:41.582Z,18.30
2022-12-03T03:06:08.973Z,19.50
2022-12-03T03:08:37.045Z,18.73
2022-12-03T03:11:03.634Z,18.23
2022-12-03T03:13:32.319Z,18.10
2022-12-03T03:15:59.285Z,17.95
2022-12-03T03:18:25.701Z,16.80
2022-12-03T03:20:53.043Z,17.67
2022-12-03T03:23:22.144Z,17.25
2022-12-03T03:26:07.750Z,17.08
2022-12-03T03:28:37.865Z,18.35
2022-12-03T03:31:06.952Z,18.83
2022-12-03T03:33:35.864Z,16.92
2022-12-03T03:36:02.568Z,19.48
2022-12-03T03:38:30.187Z,18.23
2022-12-03T03:40:59.751Z,18.00
2022-12-03T03:43:26.311Z,18.25
2022-12-03T03:45:53.877Z,20.30
2022-12-03T03:48:21.701Z,19.20
2022-12-03T03:50:49.525Z,18.90
2022-12-03T03:53:17.463Z,20.38
2022-12-03T03:55:44.318Z,21.43
2022-12-03T03:58:11.193Z,19.43
2022-12-03T04:00:41.955Z,17.42
2022-12-03T04:03:10.530Z,17.83
2022-12-03T04:05:36.997Z,17.67
2022-12-03T04:08:03.647Z,17.47
2022-12-03T04:10:30.124Z,17.90
2022-12-03T04:12:56.662Z,17.75
2022-12-03T04:15:24.375Z,18.13
2022-12-03T04:17:51.168Z,15.98
2022-12-03T04:20:17.851Z,17.58
2022-12-03T04:22:44.273Z,16.42
2022-12-03T04:25:10.969Z,15.02
2022-12-03T04:27:37.655Z,16.55
2022-12-03T04:30:04.264Z,16.98
2022-12-03T04:32:30.876Z,17.33
2022-12-03T04:34:57.620Z,18.45
2022-12-03T04:37:24.368Z,17.17
2022-12-03T04:39:50.732Z,15.15
2022-12-03T04:42:17.191Z,17.30
2022-12-03T04:44:43.519Z,17.13
2022-12-03T04:47:15.479Z,17.48
2022-12-03T04:49:47.345Z,18.27
2022-12-03T04:52:16.286Z,17.35
2022-12-03T04:54:42.999Z,16.98
2022-12-03T04:57:09.977Z,18.15
2022-12-03T04:59:36.914Z,17.00
2022-12-03T05:02:05.431Z,16.50
2022-12-03T05:04:31.898Z,16.00
2022-12-03T05:06:58.234Z,14.85
2022-12-03T05:09:24.873Z,16.25
2022-12-03T05:11:51.446Z,16.20
2022-12-03T05:14:17.791Z,15.63
2022-12-03T05:16:44.396Z,15.75
2022-12-03T05:19:10.973Z,15.10
2022-12-03T05:21:37.395Z,14.77
2022-12-03T05:24:04.271Z,15.38
2022-12-03T05:26:30.909Z,15.13
2022-12-03T05:28:57.406Z,15.15
2022-12-03T05:31:23.938Z,17.05
2022-12-03T05:33:50.388Z,16.83
2022-12-03T05:36:16.895Z,16.05
2022-12-03T05:38:43.230Z,17.30
2022-12-03T05:41:09.660Z,15.85
2022-12-03T05:43:35.999Z,16.70
2022-12-03T05:46:02.602Z,15.60
2022-12-03T05:48:28.967Z,16.60
2022-12-03T05:50:55.280Z,17.27
2022-12-03T05:53:21.944Z,18.08
2022-12-03T05:55:48.411Z,17.67
2022-12-03T05:58:15.098Z,16.00
2022-12-03T06:00:43.038Z,16.98
2022-12-03T06:03:10.194Z,17.42
2022-12-03T06:05:36.766Z,16.52
2022-12-03T06:08:03.513Z,18.60
2022-12-03T06:10:30.095Z,17.35
2022-12-03T06:12:56.737Z,19.02
2022-12-03T06:15:23.711Z,18.42
2022-12-03T06:17:50.134Z,18.98
2022-12-03T06:20:19.255Z,18.02
2022-12-03T06:22:46.067Z,18.60
2022-12-03T06:25:13.427Z,19.33
2022-12-03T06:27:39.884Z,18.27
2022-12-03T06:30:07.825Z,19.88
2022-12-03T06:32:34.476Z,19.55
2022-12-03T06:35:00.877Z,21.92
2022-12-03T06:37:27.550Z,20.02
2022-12-03T06:39:53.883Z,20.33
2022-12-03T06:42:20.341Z,19.77
2022-12-03T06:44:46.796Z,19.77
2022-12-03T06:47:13.118Z,20.27
2022-12-03T06:49:39.639Z,22.40
2022-12-03T06:52:06.061Z,20.33
2022-12-03T06:54:32.674Z,21.20
2022-12-03T06:56:59.140Z,20.98
2022-12-03T06:59:25.604Z,21.10
2022-12-03T07:01:52.190Z,19.65
2022-12-03T07:04:18.643Z,20.70
2022-12-03T07:06:45.122Z,20.30
2022-12-03T07:09:11.554Z,19.75
2022-12-03T07:11:38.170Z,19.25
2022-12-03T07:14:05.712Z,20.37
2022-12-03T07:16:33.563Z,20.60
2022-12-03T07:18:59.986Z,20.17
2022-12-03T07:21:26.616Z,18.90
2022-12-03T07:23:52.987Z,19.07
2022-12-03T07:26:19.287Z,19.60
2022-12-03T07:28:45.683Z,19.85
2022-12-03T07:31:12.117Z,17.17
2022-12-03T07:33:38.553Z,18.17
2022-12-03T07:36:05.498Z,20.70
2022-12-03T07:38:32.031Z,19.10
2022-12-03T07:40:58.382Z,19.37
2022-12-03T07:43:24.842Z,20.20
2022-12-03T07:45:51.174Z,18.83
2022-12-03T07:48:17.587Z,21.23
2022-12-03T07:50:44.046Z,18.53
2022-12-03T07:53:10.429Z,18.95
2022-12-03T07:55:51.986Z,20.20
2022-12-03T07:58:18.490Z,21.60
2022-12-03T08:00:45.056Z,20.07
2022-12-03T08:03:11.714Z,22.10
2022-12-03T08:05:38.100Z,21.60
2022-12-03T08:08:05.289Z,22.43
2022-12-03T08:10:31.977Z,24.10
2022-12-03T08:12:59.628Z,23.17
2022-12-03T08:15:31.055Z,23.30
2022-12-03T08:18:00.947Z,22.13
2022-12-03T08:20:34.731Z,20.97
2022-12-03T08:23:07.648Z,21.40
2022-12-03T08:25:34.010Z,22.47
2022-12-03T08:28:07.744Z,21.80
2022-12-03T08:30:34.211Z,21.13
2022-12-03T08:33:00.642Z,21.57
2022-12-03T08:35:31.007Z,21.17
2022-12-03T08:38:11.256Z,19.20
2022-12-03T08:40:42.006Z,19.27
2022-12-03T08:43:28.516Z,21.90
2022-12-03T08:45:56.643Z,20.90
2022-12-03T08:48:32.474Z,20.37
2022-12-03T08:51:03.608Z,18.13
2022-12-03T08:53:38.436Z,18.63
2022-12-03T08:56:12.202Z,17.80
2022-12-03T08:58:43.978Z,19.27
2022-12-03T09:01:10.667Z,17.40
2022-12-03T09:03:47.180Z,17.57
2022-12-03T09:06:13.570Z,18.93
2022-12-03T09:08:40.151Z,17.17
2022-12-03T09:11:06.594Z,18.77
2022-12-03T09:13:32.931Z,18.70
2022-12-03T09:15:59.339Z,18.83
2022-12-03T09:18:25.929Z,18.17
2022-12-03T09:20:52.216Z,18.30
2022-12-03T09:23:18.762Z,18.17
2022-12-03T09:25:45.244Z,17.87
2022-12-03T09:28:11.678Z,16.50
2022-12-03T09:30:38.777Z,18.30
2022-12-03T09:33:05.419Z,16.93
2022-12-03T09:35:31.862Z,17.23
2022-12-03T09:37:58.271Z,16.63
2022-12-03T09:40:24.784Z,16.17
2022-12-03T09:42:51.853Z,15.90
2022-12-03T09:45:18.546Z,16.70
2022-12-03T09:47:47.844Z,17.33
2022-12-03T09:50:18.429Z,16.97
2022-12-03T09:52:44.922Z,16.63
2022-12-03T09:55:15.783Z,17.90
2022-12-03T10:00:19.945Z,18.10
2022-12-03T10:02:46.845Z,17.27
2022-12-03T10:05:14.208Z,17.87
2022-12-03T10:07:41.968Z,16.33
2022-12-03T10:10:16.792Z,17.37
2022-12-03T10:12:43.799Z,17.70
2022-12-03T10:15:13.339Z,17.47
2022-12-03T10:17:39.932Z,16.57
2022-12-03T10:20:07.707Z,16.17
2022-12-03T10:22:34.361Z,17.20
2022-12-03T10:25:08.346Z,15.90
2022-12-03T10:27:34.878Z,15.77
2022-12-03T10:30:04.458Z,15.53
2022-12-03T10:32:43.580Z,14.23
2022-12-03T10:35:37.824Z,14.77
2022-12-03T10:38:20.442Z,14.77
2022-12-03T10:40:46.917Z,13.97
2022-12-03T10:43:19.286Z,14.30
2022-12-03T10:45:47.665Z,16.10
2022-12-03T10:48:23.802Z,15.60
2022-12-03T10:50:57.156Z,15.43
2022-12-03T10:53:28.089Z,13.53
2022-12-03T10:58:24.132Z,13.67
2022-12-03T11:00:53.524Z,15.03
2022-12-03T11:03:28.984Z,14.23
2022-12-03T11:05:57.084Z,15.07
2022-12-03T11:08:29.268Z,14.20
2022-12-03T11:11:03.045Z,13.65
2022-12-03T11:13:42.908Z,15.55
2022-12-03T11:16:09.385Z,14.87
2022-12-03T11:18:36.131Z,14.73
2022-12-03T11:21:14.132Z,14.40
2022-12-03T11:23:46.290Z,14.97
2022-12-03T11:26:19.562Z,14.83
2022-12-03T11:28:46.393Z,14.77
2022-12-03T11:31:37.660Z,14.52
2022-12-03T11:34:19.590Z,13.67
2022-12-03T11:37:11.131Z,14.50
2022-12-03T11:40:20.721Z,14.40
2022-12-03T11:42:48.298Z,13.43
2022-12-03T11:45:33.476Z,14.90
2022-12-03T11:47:59.883Z,14.20
2022-12-03T11:50:39.720Z,14.70
2022-12-03T11:53:24.899Z,14.93
2022-12-03T11:56:04.556Z,14.83
2022-12-03T11:58:32.179Z,16.60
2022-12-03T12:01:00.942Z,15.60
2022-12-03T12:03:34.133Z,14.37
2022-12-03T12:06:07.914Z,15.53
2022-12-03T12:08:37.312Z,16.43
2022-12-03T12:11:04.454Z,16.23
2022-12-03T12:13:30.743Z,16.02
2022-12-03T12:15:58.687Z,16.50
2022-12-03T12:18:45.268Z,15.27
2022-12-03T12:21:46.935Z,14.80
2022-12-03T12:24:34.342Z,16.20
2022-12-03T12:27:05.032Z,14.93
2022-12-03T12:29:31.620Z,15.90
2022-12-03T12:32:02.334Z,15.67
2022-12-03T12:34:29.273Z,14.50
2022-12-03T12:36:59.843Z,15.73
2022-12-03T12:39:26.724Z,16.00
2022-12-03T12:41:54.180Z,16.57
2022-12-03T12:44:20.557Z,14.07
2022-12-03T12:46:48.593Z,17.00
2022-12-03T12:49:15.717Z,16.37
2022-12-03T12:51:49.338Z,16.33
2022-12-03T12:54:17.892Z,16.63
2022-12-03T12:56:47.357Z,15.37
2022-12-03T12:59:16.946Z,16.93
2022-12-03T13:01:45.609Z,20.97
2022-12-03T13:04:13.586Z,18.73
2022-12-03T13:06:40.571Z,24.47
2022-12-03T13:09:25.207Z,19.87
2022-12-03T13:12:02.260Z,18.07
2022-12-03T13:14:35.844Z,18.17
2022-12-03T13:17:13.168Z,19.73
2022-12-03T13:20:00.583Z,18.83
2022-12-03T13:22:27.906Z,24.27
2022-12-03T13:24:56.076Z,20.43
2022-12-03T13:27:28.625Z,19.70
2022-12-03T13:30:27.604Z,16.30
2022-12-03T13:32:54.239Z,16.23
2022-12-03T13:35:29.412Z,16.93
2022-12-03T13:37:58.368Z,15.30
2022-12-03T13:40:30.388Z,15.93
2022-12-03T13:42:57.848Z,16.37
2022-12-03T13:45:24.434Z,16.20
2022-12-03T13:48:01.336Z,16.53
2022-12-03T13:50:39.349Z,15.33
2022-12-03T13:53:12.073Z,16.77
2022-12-03T13:55:42.930Z,14.80
2022-12-03T14:00:35.636Z,15.60
2022-12-03T14:03:02.054Z,15.50
2022-12-03T14:05:28.811Z,15.90
2022-12-03T14:07:55.389Z,15.97
2022-12-03T14:10:21.770Z,16.30
2022-12-03T14:12:48.121Z,16.03
2022-12-03T14:15:14.591Z,16.07
2022-12-03T14:17:41.085Z,16.37
2022-12-03T14:20:08.181Z,15.60
2022-12-03T14:22:34.635Z,15.13
2022-12-03T14:25:01.321Z,16.57
2022-12-03T14:27:27.929Z,15.67
2022-12-03T14:29:54.542Z,16.13
2022-12-03T14:32:21.183Z,13.67
2022-12-03T14:34:47.859Z,16.97
2022-12-03T14:37:14.368Z,18.23
2022-12-03T14:39:40.941Z,16.97
2022-12-03T14:42:07.566Z,17.13
2022-12-03T14:44:34.095Z,17.43
2022-12-03T14:47:00.524Z,14.23
2022-12-03T14:49:27.092Z,14.57
2022-12-03T14:51:53.766Z,14.33
2022-12-03T14:54:20.224Z,14.63
2022-12-03T14:56:46.704Z,14.57
2022-12-03T14:59:13.249Z,13.40
2022-12-03T15:01:39.755Z,14.23
2022-12-03T15:04:06.426Z,14.73
2022-12-03T15:06:32.758Z,14.73
2022-12-03T15:08:59.290Z,15.30
2022-12-03T15:11:25.936Z,15.87
2022-12-03T15:13:52.488Z,15.90
2022-12-03T15:16:18.919Z,15.13
2022-12-03T15:18:45.427Z,15.07
2022-12-03T15:21:12.149Z,15.93
2022-12-03T15:23:39.087Z,16.30
2022-12-03T15:26:05.613Z,15.07
2022-12-03T15:28:32.262Z,15.30
2022-12-03T15:30:58.976Z,16.17
2022-12-03T15:33:25.564Z,17.57
2022-12-03T15:35:51.977Z,15.97
2022-12-03T15:38:18.661Z,17.63
2022-12-03T15:40:45.109Z,17.10
2022-12-03T15:43:11.764Z,17.40
2022-12-03T15:45:38.412Z,19.23
2022-12-03T15:48:06.272Z,16.97
2022-12-03T15:50:37.092Z,18.50
2022-12-03T15:53:06.631Z,17.33
2022-12-03T15:55:33.080Z,18.10
2022-12-03T15:58:04.495Z,17.33
2022-12-03T16:00:31.090Z,19.87
2022-12-03T16:02:57.527Z,16.60
2022-12-03T16:05:23.982Z,19.27
2022-12-03T16:07:50.515Z,16.67
2022-12-03T16:10:17.169Z,19.00
2022-12-03T16:12:43.724Z,18.53
2022-12-03T16:15:10.303Z,20.87
2022-12-03T16:17:36.670Z,19.93
2022-12-03T16:20:03.488Z,20.70
2022-12-03T16:22:29.910Z,19.93
2022-12-03T16:24:56.551Z,17.93
2022-12-03T16:27:25.855Z,18.17
2022-12-03T16:29:52.948Z,18.50
2022-12-03T16:32:19.689Z,20.00
2022-12-03T16:34:46.043Z,19.30
2022-12-03T16:37:12.724Z,18.43
2022-12-03T16:39:39.135Z,18.80
2022-12-03T16:42:07.973Z,19.07
2022-12-03T16:44:38.643Z,18.77
2022-12-03T16:47:05.323Z,18.80
2022-12-03T16:49:31.618Z,17.87
2022-12-03T16:51:58.043Z,17.80
2022-12-03T16:54:24.399Z,17.73
2022-12-03T16:56:51.377Z,18.33
2022-12-03T16:59:17.710Z,18.40
2022-12-03T17:01:44.423Z,20.30
2022-12-03T17:04:11.101Z,18.37
2022-12-03T17:06:37.760Z,18.77
2022-12-03T17:09:04.969Z,18.30
2022-12-03T17:11:31.605Z,19.47
2022-12-03T17:13:58.007Z,19.20
2022-12-03T17:16:24.523Z,19.90
2022-12-03T17:18:51.252Z,18.13
2022-12-03T17:21:17.776Z,21.03
2022-12-03T17:23:44.134Z,19.30
2022-12-03T17:26:10.618Z,19.43
2022-12-03T17:28:37.193Z,19.57
2022-12-03T17:31:03.746Z,19.60
2022-12-03T17:33:30.148Z,16.90
2022-12-03T17:35:56.524Z,17.30
2022-12-03T17:38:22.966Z,18.13
2022-12-03T17:40:49.341Z,21.10
2022-12-03T17:43:15.694Z,18.03
2022-12-03T17:45:42.072Z,19.73
2022-12-03T17:48:08.490Z,19.27
2022-12-03T17:50:35.163Z,17.67
2022-12-03T17:53:01.772Z,21.43
2022-12-03T17:55:36.999Z,17.27
2022-12-03T17:58:07.509Z,18.70
2022-12-03T18:00:34.402Z,18.80
2022-12-03T18:03:00.769Z,17.93
2022-12-03T18:05:27.246Z,17.80
2022-12-03T18:07:53.850Z,16.30
2022-12-03T18:10:20.226Z,17.97
2022-12-03T18:12:46.655Z,17.43
2022-12-03T18:15:13.093Z,16.43
2022-12-03T18:17:39.735Z,19.57
2022-12-03T18:20:07.534Z,17.87
2022-12-03T18:22:34.147Z,17.73
2022-12-03T18:25:00.893Z,16.53
2022-12-03T18:27:27.431Z,15.77
2022-12-03T18:29:54.105Z,16.57
2022-12-03T18:32:28.682Z,17.10
2022-12-03T18:34:56.137Z,15.70
2022-12-03T18:37:27.200Z,16.70
2022-12-03T18:39:53.994Z,17.83
2022-12-03T18:42:23.456Z,16.80
2022-12-03T18:44:52.494Z,15.97
2022-12-03T18:47:21.775Z,17.67
2022-12-03T18:49:48.756Z,17.10
2022-12-03T18:52:16.580Z,15.83
2022-12-03T18:54:43.609Z,17.40
2022-12-03T18:57:10.106Z,16.77
2022-12-03T18:59:37.208Z,16.87
2022-12-03T19:02:04.148Z,16.83
2022-12-03T19:04:31.332Z,16.23
2022-12-03T19:06:57.791Z,15.87
2022-12-03T19:09:24.316Z,17.20
2022-12-03T19:11:50.927Z,15.67
2022-12-03T19:14:17.409Z,15.53
2022-12-03T19:16:43.977Z,17.00
2022-12-03T19:19:10.675Z,16.13
2022-12-03T19:21:37.091Z,16.60
2022-12-03T19:24:23.896Z,18.23
2022-12-03T19:26:50.527Z,17.00
2022-12-03T19:29:16.880Z,16.67
2022-12-03T19:31:43.524Z,16.47
2022-12-03T19:34:10.157Z,17.17
2022-12-03T19:36:36.706Z,18.07
2022-12-03T19:39:03.216Z,17.83
2022-12-03T19:41:29.707Z,18.27
2022-12-03T19:43:57.047Z,15.47
2022-12-03T19:46:25.878Z,16.40
2022-12-03T19:48:54.769Z,17.43
2022-12-03T19:51:34.271Z,16.57
2022-12-03T19:54:04.011Z,18.45
2022-12-03T19:56:30.651Z,19.73
2022-12-03T19:58:57.580Z,24.57
2022-12-03T20:01:27.064Z,22.30
2022-12-03T20:03:56.008Z,21.30
2022-12-03T20:06:25.374Z,19.83
2022-12-03T20:08:59.678Z,20.33
2022-12-03T20:11:28.997Z,18.50
2022-12-03T20:13:57.536Z,19.97
2022-12-03T20:16:25.173Z,22.10
2022-12-03T20:18:55.778Z,20.93
2022-12-03T20:21:22.322Z,20.65
2022-12-03T20:23:48.740Z,21.00
2022-12-03T20:26:18.204Z,20.57
2022-12-03T20:28:46.013Z,22.07
2022-12-03T20:31:15.976Z,21.57
2022-12-03T20:33:45.035Z,21.92
2022-12-03T20:36:14.085Z,22.53
2022-12-03T20:38:40.788Z,20.43
2022-12-03T20:41:09.836Z,24.53
2022-12-03T20:43:36.618Z,22.27
2022-12-03T20:46:09.910Z,23.27
2022-12-03T20:48:36.796Z,23.40
2022-12-03T20:51:05.033Z,23.53
2022-12-03T20:53:31.713Z,26.60
2022-12-03T20:55:59.477Z,24.47
2022-12-03T20:58:25.909Z,22.33
2022-12-03T21:00:52.408Z,23.83
2022-12-03T21:03:18.867Z,22.80
2022-12-03T21:05:45.322Z,21.43
2022-12-03T21:08:13.451Z,22.17
2022-12-03T21:10:41.166Z,20.43
2022-12-03T21:13:07.576Z,21.57
2022-12-03T21:15:33.875Z,20.57
2022-12-03T21:18:00.299Z,21.47
2022-12-03T21:20:26.747Z,19.83
2022-12-03T21:22:53.075Z,21.87
2022-12-03T21:25:19.767Z,23.37
2022-12-03T21:27:46.136Z,23.63
2022-12-03T21:30:12.901Z,22.60
2022-12-03T21:32:39.436Z,24.03
2022-12-03T21:35:08.474Z,26.70
2022-12-03T21:37:34.840Z,23.40
2022-12-03T21:40:01.305Z,22.77
2022-12-03T21:42:36.553Z,23.20
2022-12-03T21:45:03.970Z,23.43
2022-12-03T21:47:36.635Z,23.50
2022-12-03T21:50:05.098Z,22.83
2022-12-03T21:52:31.503Z,23.93
2022-12-03T21:54:57.862Z,23.77
2022-12-03T21:57:24.173Z,25.03
2022-12-03T21:59:50.622Z,22.07
2022-12-03T22:02:17.042Z,22.77
2022-12-03T22:04:43.577Z,22.50
2022-12-03T22:07:10.020Z,24.17
2022-12-03T22:09:36.427Z,23.13
2022-12-03T22:12:02.844Z,26.53
2022-12-03T22:14:29.849Z,25.10
2022-12-03T22:16:56.352Z,24.93
2022-12-03T22:19:23.972Z,26.17
2022-12-03T22:21:50.644Z,25.97
2022-12-03T22:24:17.211Z,26.43
2022-12-03T22:26:43.562Z,24.27
2022-12-03T22:29:11.322Z,25.53
2022-12-03T22:31:38.305Z,25.03
2022-12-03T22:34:05.119Z,25.37
2022-12-03T22:36:31.475Z,24.43
2022-12-03T22:38:57.837Z,25.47
2022-12-03T22:41:24.208Z,24.17
2022-12-03T22:43:50.666Z,25.87
2022-12-03T22:46:17.684Z,23.07
2022-12-03T22:48:46.008Z,24.23
2022-12-03T22:51:23.771Z,24.17
2022-12-03T22:53:58.396Z,23.17
2022-12-03T22:56:26.288Z,23.70
2022-12-03T22:58:53.016Z,22.63
2022-12-03T23:01:25.689Z,21.73
2022-12-03T23:03:52.362Z,22.13
2022-12-03T23:06:19.708Z,21.50
2022-12-03T23:08:46.365Z,21.43
2022-12-03T23:11:13.249Z,21.13
2022-12-03T23:13:40.015Z,21.67
2022-12-03T23:16:07.322Z,21.73
2022-12-03T23:18:33.683Z,22.13
2022-12-03T23:21:00.081Z,22.23
2022-12-03T23:23:28.170Z,20.93
2022-12-03T23:25:59.327Z,21.67
2022-12-03T23:28:27.009Z,20.07
2022-12-03T23:30:53.816Z,21.60
2022-12-03T23:33:20.760Z,20.90
2022-12-03T23:35:47.222Z,21.73
2022-12-03T23:38:13.690Z,21.73
2022-12-03T23:40:44.757Z,21.47
2022-12-03T23:43:14.319Z,19.43
2022-12-03T23:45:41.184Z,20.63
2022-12-03T23:48:07.521Z,20.07
2022-12-03T23:50:33.898Z,19.83
2022-12-03T23:53:00.293Z,18.43
2022-12-03T23:55:26.701Z,19.37
2022-12-03T23:57:53.175Z,20.00
